Time;durP1;ratioP1;P1;durP2;ratioP2;P2;SDS_P1;SDS_P2;PMS_P1;PMS_P2;Temp;Humidity;BMP_temperature;BMP_pressure;BME280_temperature;BME280_humidity;BME280_pressure;Samples;Min_cycle;Max_cycle;Signal;HPM_P1;HPM_P2
2022/05/17 00:01:24;;;;;;;20.30;8.10;;;;;;;39.52;42.36;101143.44;5029225;28;20431;-73
2022/05/17 00:03:50;;;;;;;14.17;7.60;;;;;;;39.63;42.23;101133.94;5029403;28;20424;-72
2022/05/17 00:06:16;;;;;;;17.93;7.13;;;;;;;39.36;42.88;101132.19;5012761;28;20431;-71
2022/05/17 00:08:42;;;;;;;14.57;7.93;;;;;;;39.43;42.59;101135.25;5028765;28;20932;-72
2022/05/17 00:11:11;;;;;;;11.73;6.07;;;;;;;39.47;42.37;101133.53;5029074;28;20919;-72
2022/05/17 00:13:37;;;;;;;14.53;7.10;;;;;;;39.45;42.38;101126.78;5013901;28;20511;-71
2022/05/17 00:16:04;;;;;;;18.03;7.90;;;;;;;39.34;42.91;101126.25;5029134;28;20417;-73
2022/05/17 00:18:31;;;;;;;20.70;9.63;;;;;;;39.38;42.71;101126.44;5013918;28;20413;-72
2022/05/17 00:20:57;;;;;;;15.43;7.47;;;;;;;39.34;42.62;101128.16;5029045;28;20495;-72
2022/05/17 00:23:23;;;;;;;19.37;6.97;;;;;;;39.18;42.46;101125.81;5012345;28;20427;-71
2022/05/17 00:25:49;;;;;;;18.90;8.87;;;;;;;39.22;42.62;101126.00;4996138;28;20511;-72
2022/05/17 00:28:19;;;;;;;17.40;7.70;;;;;;;39.44;42.37;101122.47;5013939;28;20404;-72
2022/05/17 00:30:46;;;;;;;22.67;8.03;;;;;;;39.38;42.67;101115.56;5012351;28;20478;-72
2022/05/17 00:33:12;;;;;;;21.33;8.03;;;;;;;39.31;42.55;101109.78;5012172;28;20914;-72
2022/05/17 00:35:39;;;;;;;18.60;8.90;;;;;;;39.20;42.89;101118.19;5013415;28;20483;-71
2022/05/17 00:38:05;;;;;;;13.60;6.43;;;;;;;39.27;42.62;101122.38;5028704;28;20423;-72
2022/05/17 00:40:32;;;;;;;26.80;8.17;;;;;;;39.04;43.25;101121.53;5028650;28;20853;-72
2022/05/17 00:42:58;;;;;;;29.93;10.07;;;;;;;39.11;43.38;101113.78;5013408;28;20421;-72
2022/05/17 00:45:24;;;;;;;19.90;8.10;;;;;;;39.38;42.81;101121.00;5011893;28;20970;-73
2022/05/17 00:47:58;;;;;;;18.83;7.90;;;;;;;39.38;42.84;101115.56;5028263;28;20934;-72
2022/05/17 00:50:30;;;;;;;19.63;8.20;;;;;;;39.37;43.07;101114.78;5011966;28;20535;-72
2022/05/17 00:53:04;;;;;;;21.30;8.43;;;;;;;39.42;42.96;101109.22;5028238;28;20543;-72
2022/05/17 00:55:39;;;;;;;12.07;6.30;;;;;;;39.30;43.34;101105.47;5011813;28;20431;-73
2022/05/17 00:58:09;;;;;;;16.73;8.27;;;;;;;39.41;43.10;101094.06;5028093;28;20431;-73
2022/05/17 01:01:02;;;;;;;20.53;7.97;;;;;;;39.44;43.15;101103.47;5028461;28;20428;-72
2022/05/17 01:03:34;;;;;;;17.33;6.40;;;;;;;39.52;42.99;101094.56;5013034;28;20758;-72
2022/05/17 01:06:02;;;;;;;17.03;9.00;;;;;;;39.57;42.86;101108.00;5028090;28;20801;-71
2022/05/17 01:08:29;;;;;;;23.30;9.27;;;;;;;39.52;43.24;101102.72;5012708;28;20472;-73
2022/05/17 01:10:55;;;;;;;24.27;9.53;;;;;;;39.60;43.09;101102.00;5011644;28;20535;-73
2022/05/17 01:16:08;;;;;;;26.93;10.17;;;;;;;39.37;43.62;101092.25;5011998;28;20431;-72
2022/05/17 01:18:37;;;;;;;33.63;9.60;;;;;;;39.56;43.16;101087.41;5011502;28;20451;-73
2022/05/17 01:21:03;;;;;;;24.13;9.63;;;;;;;39.53;42.94;101074.44;5027948;28;20796;-73
2022/05/17 01:23:30;;;;;;;19.83;6.83;;;;;;;39.58;43.09;101076.22;5012282;28;20485;-72
2022/05/17 01:25:57;;;;;;;18.77;8.90;;;;;;;39.46;43.31;101076.81;5011405;28;20424;-72
2022/05/17 01:28:27;;;;;;;19.57;7.77;;;;;;;39.41;43.54;101068.78;5011385;28;20495;-73
2022/05/17 01:30:56;;;;;;;25.00;9.10;;;;;;;39.44;43.39;101076.34;4995081;28;20447;-71
2022/05/17 01:33:22;;;;;;;22.43;9.37;;;;;;;39.54;43.11;101081.50;5011060;28;20529;-72
2022/05/17 01:35:48;;;;;;;20.30;9.20;;;;;;;39.54;43.68;101081.50;5027622;28;20801;-71
2022/05/17 01:38:14;;;;;;;28.67;8.97;;;;;;;39.51;43.68;101079.41;5011432;28;20784;-73
2022/05/17 01:40:41;;;;;;;20.70;8.53;;;;;;;39.55;43.61;101074.97;5027585;28;20420;-73
2022/05/17 01:43:08;;;;;;;33.40;7.80;;;;;;;39.62;43.19;101078.03;5027628;28;20413;-73
2022/05/17 01:45:34;;;;;;;20.10;8.33;;;;;;;39.61;43.28;101076.44;5011292;28;20428;-72
2022/05/17 01:48:00;;;;;;;20.23;8.43;;;;;;;39.60;43.28;101074.84;5011097;28;20411;-72
2022/05/17 01:50:27;;;;;;;15.80;8.03;;;;;;;39.50;43.35;101069.66;5012358;28;20873;-71
2022/05/17 01:52:53;;;;;;;18.70;8.70;;;;;;;39.38;43.50;101062.09;5012169;28;20452;-72
2022/05/17 01:55:19;;;;;;;27.50;9.53;;;;;;;39.59;43.02;101062.34;5011035;28;20775;-73
2022/05/17 01:57:46;;;;;;;12.43;7.47;;;;;;;39.54;43.34;101061.69;5011003;28;20421;-73
2022/05/17 02:00:14;;;;;;;11.73;6.50;;;;;;;39.54;43.12;101050.84;5012232;28;20504;-72
2022/05/17 02:02:40;;;;;;;16.83;7.87;;;;;;;39.53;43.35;101055.44;4994543;28;20934;-72
2022/05/17 02:05:07;;;;;;;16.73;8.30;;;;;;;39.37;43.45;101046.94;5027270;28;20481;-72
2022/05/17 02:07:34;;;;;;;14.97;6.90;;;;;;;39.29;43.60;101036.00;5027135;28;20534;-72
2022/05/17 02:10:00;;;;;;;19.90;8.13;;;;;;;39.31;43.37;101039.22;5027268;28;20446;-71
2022/05/17 02:12:27;;;;;;;20.20;7.27;;;;;;;39.23;43.58;101047.03;5010705;28;20420;-71
2022/05/17 02:14:53;;;;;;;21.63;10.17;;;;;;;39.39;43.53;101035.75;5011956;28;20863;-71
2022/05/17 02:17:19;;;;;;;19.73;9.93;;;;;;;39.43;43.49;101042.16;5010706;28;20431;-72
2022/05/17 02:19:45;;;;;;;18.93;8.73;;;;;;;39.14;44.19;101040.69;5012066;28;20412;-72
2022/05/17 02:22:11;;;;;;;19.60;8.03;;;;;;;39.13;43.99;101044.53;5027173;28;20512;-73
2022/05/17 02:24:37;;;;;;;18.30;9.23;;;;;;;38.81;44.75;101042.09;5026951;28;20471;-71
2022/05/17 02:27:03;;;;;;;28.50;9.10;;;;;;;38.85;44.71;101033.00;5012040;28;20820;-73
2022/05/17 02:29:30;;;;;;;14.87;8.20;;;;;;;39.01;44.26;101033.44;5011789;28;20475;-71
2022/05/17 02:31:56;;;;;;;23.80;8.90;;;;;;;39.04;44.24;101034.72;5010798;28;20436;-72
2022/05/17 02:34:22;;;;;;;21.47;8.53;;;;;;;39.05;44.38;101037.16;5010544;28;20480;-72
2022/05/17 02:36:49;;;;;;;15.37;8.30;;;;;;;39.27;43.49;101033.63;5014082;28;20439;-72
2022/05/17 02:39:15;;;;;;;21.33;9.77;;;;;;;39.16;43.69;101038.50;5015740;28;20419;-72
2022/05/17 02:41:41;;;;;;;15.50;7.80;;;;;;;39.36;43.19;101041.81;5014115;28;20986;-71
2022/05/17 02:44:07;;;;;;;14.67;8.60;;;;;;;39.39;43.50;101030.31;5015683;28;20491;-71
2022/05/17 02:46:34;;;;;;;13.73;7.50;;;;;;;39.34;43.64;101027.72;5030715;28;20514;-72
2022/05/17 02:49:07;;;;;;;11.87;8.60;;;;;;;39.23;43.74;101025.31;5030553;28;20448;-72
2022/05/17 02:51:34;;;;;;;17.80;8.77;;;;;;;39.15;44.12;101028.72;5030672;28;20851;-73
2022/05/17 02:54:01;;;;;;;14.50;8.90;;;;;;;39.14;44.22;101021.69;5013984;28;20460;-72
2022/05/17 02:56:27;;;;;;;23.20;11.70;;;;;;;39.11;44.11;101014.19;5015248;28;20485;-71
2022/05/17 02:58:53;;;;;;;20.77;11.03;;;;;;;39.03;44.43;101000.56;5030494;28;20436;-72
2022/05/17 03:01:19;;;;;;;16.97;9.93;;;;;;;38.88;44.56;101002.56;5013994;28;20846;-72
2022/05/17 03:03:46;;;;;;;19.30;11.30;;;;;;;38.85;45.34;100999.66;5014197;28;20981;-71
2022/05/17 03:06:12;;;;;;;16.50;10.70;;;;;;;38.89;44.70;100993.31;5013897;28;20436;-71
2022/05/17 03:08:38;;;;;;;15.27;9.70;;;;;;;39.02;44.54;100990.84;5013678;28;20483;-73
2022/05/17 03:11:05;;;;;;;18.30;10.30;;;;;;;39.12;44.21;100994.09;5030359;28;20432;-73
2022/05/17 03:13:32;;;;;;;16.77;8.83;;;;;;;39.10;44.38;100988.19;5014991;28;20492;-71
2022/05/17 03:15:59;;;;;;;16.90;9.10;;;;;;;39.29;43.81;100976.31;5014024;28;20427;-71
2022/05/17 03:18:25;;;;;;;16.93;10.47;;;;;;;39.01;44.60;100981.91;5014861;28;20887;-72
2022/05/17 03:20:51;;;;;;;21.20;9.60;;;;;;;38.78;45.23;100989.25;5013633;28;20432;-73
2022/05/17 03:23:17;;;;;;;15.43;10.60;;;;;;;38.88;44.57;100980.06;5030067;28;20428;-73
2022/05/17 03:25:43;;;;;;;14.20;8.67;;;;;;;38.43;45.46;100983.56;5029554;28;20459;-73
2022/05/17 03:28:11;;;;;;;20.23;9.53;;;;;;;38.63;45.50;100979.56;5029777;28;20444;-73
2022/05/17 03:30:39;;;;;;;15.10;10.10;;;;;;;38.74;45.26;100987.50;5014655;28;20419;-72
2022/05/17 03:33:05;;;;;;;24.63;9.33;;;;;;;38.93;44.99;100988.88;5029671;28;20521;-72
2022/05/17 03:35:32;;;;;;;17.50;9.30;;;;;;;38.96;44.85;100971.97;5013414;28;20940;-73
2022/05/17 03:37:58;;;;;;;16.30;9.90;;;;;;;38.54;45.34;100975.19;5014673;28;20405;-73
2022/05/17 03:40:24;;;;;;;20.53;10.90;;;;;;;38.74;45.08;100966.59;5030221;28;20428;-72
2022/05/17 03:42:50;;;;;;;12.43;8.97;;;;;;;38.76;44.71;100963.56;5029620;28;20420;-73
2022/05/17 03:45:16;;;;;;;17.23;11.00;;;;;;;38.55;45.94;100960.50;5014529;28;20405;-72
2022/05/17 03:47:42;;;;;;;14.90;9.53;;;;;;;38.51;45.73;100957.63;5029292;28;20432;-72
2022/05/17 03:50:09;;;;;;;14.23;10.67;;;;;;;38.14;46.62;100959.53;5029832;28;20424;-73
2022/05/17 03:52:36;;;;;;;13.00;8.47;;;;;;;38.22;46.11;100963.41;5012947;28;20421;-72
2022/05/17 03:55:05;;;;;;;19.40;9.03;;;;;;;38.09;46.67;100959.63;5012943;28;20996;-71
2022/05/17 03:57:32;;;;;;;15.60;10.10;;;;;;;38.24;46.42;100963.91;5013242;28;20424;-73
2022/05/17 03:59:58;;;;;;;19.93;13.63;;;;;;;38.45;45.93;100958.84;5012780;28;20790;-72
2022/05/17 04:02:24;;;;;;;15.97;10.17;;;;;;;38.28;46.36;100958.72;5012842;28;20428;-72
2022/05/17 04:04:55;;;;;;;22.60;11.90;;;;;;;38.43;46.15;100963.78;5012747;28;20453;-71
2022/05/17 04:07:22;;;;;;;27.13;11.37;;;;;;;38.58;45.92;100962.63;5012600;28;21046;-72
2022/05/17 04:09:48;;;;;;;24.00;11.00;;;;;;;38.49;45.83;100970.69;5029438;28;20448;-71
2022/05/17 04:12:14;;;;;;;23.70;12.60;;;;;;;38.59;45.44;100965.00;5029284;28;20428;-73
2022/05/17 04:14:41;;;;;;;15.97;10.20;;;;;;;38.61;45.45;100968.25;5013906;28;20444;-73
2022/05/17 04:17:07;;;;;;;19.67;10.67;;;;;;;38.62;45.57;100966.31;5028875;28;20816;-72
2022/05/17 04:19:36;;;;;;;16.77;9.47;;;;;;;38.76;45.19;100966.28;5029035;28;20918;-72
2022/05/17 04:22:07;;;;;;;15.50;9.13;;;;;;;38.81;45.16;100958.03;5029040;28;20432;-72
2022/05/17 04:24:34;;;;;;;22.07;10.47;;;;;;;38.81;45.02;100977.81;5013910;28;20407;-72
2022/05/17 04:27:00;;;;;;;22.70;10.40;;;;;;;38.88;44.89;100975.44;5028760;28;20876;-72
2022/05/17 04:29:26;;;;;;;19.83;10.10;;;;;;;38.77;45.08;100967.88;5028727;28;20938;-72
2022/05/17 04:31:52;;;;;;;17.00;8.23;;;;;;;38.81;44.84;100975.09;5013370;28;20437;-73
2022/05/17 04:34:18;;;;;;;18.90;8.53;;;;;;;38.55;45.31;100980.31;5013497;28;20444;-73
2022/05/17 04:36:46;;;;;;;13.37;8.83;;;;;;;38.21;46.34;100974.56;5028554;28;20455;-73
2022/05/17 04:39:12;;;;;;;17.20;8.57;;;;;;;38.51;45.85;100990.16;5012221;28;20424;-73
2022/05/17 04:41:38;;;;;;;20.60;9.27;;;;;;;38.64;45.53;100993.91;5028867;28;20475;-72
2022/05/17 04:44:04;;;;;;;15.63;10.33;;;;;;;38.35;46.19;100995.13;5012005;28;20416;-71
2022/05/17 04:46:30;;;;;;;16.97;10.20;;;;;;;38.30;46.22;100999.84;5028480;28;20417;-73
2022/05/17 04:48:56;;;;;;;13.73;9.47;;;;;;;38.22;46.05;100995.94;5028451;28;20494;-73
2022/05/17 04:51:22;;;;;;;23.40;9.10;;;;;;;38.49;45.96;101002.41;5028718;28;20516;-72
2022/05/17 04:53:48;;;;;;;21.27;10.33;;;;;;;38.50;45.71;100999.41;5028272;28;20978;-72
2022/05/17 04:56:15;;;;;;;14.87;10.30;;;;;;;38.38;45.95;100994.53;5013076;28;20856;-73
2022/05/17 04:58:43;;;;;;;25.97;11.90;;;;;;;38.37;45.95;101001.06;5027567;28;20417;-72
2022/05/17 05:01:09;;;;;;;17.47;12.07;;;;;;;38.29;46.43;100999.03;5011615;28;20421;-72
2022/05/17 05:03:35;;;;;;;17.37;12.30;;;;;;;38.03;46.60;101000.69;5028368;28;20435;-71
2022/05/17 05:06:01;;;;;;;21.60;12.40;;;;;;;37.97;47.12;101010.03;5028212;28;20436;-71
2022/05/17 05:08:27;;;;;;;16.10;10.60;;;;;;;38.28;46.30;101018.31;5027802;28;20472;-71
2022/05/17 05:10:54;;;;;;;24.40;12.90;;;;;;;38.11;46.92;101014.31;5012956;28;20417;-73
2022/05/17 05:13:21;;;;;;;20.37;11.90;;;;;;;37.95;47.19;101025.78;5012814;28;20475;-73
2022/05/17 05:15:48;;;;;;;22.13;12.33;;;;;;;37.92;47.30;101021.75;5028066;28;20778;-72
2022/05/17 05:18:15;;;;;;;19.90;10.30;;;;;;;37.96;47.25;101022.75;5013174;28;20427;-71
2022/05/17 05:20:43;;;;;;;17.63;11.83;;;;;;;37.55;48.10;101026.22;5027950;28;21042;-73
2022/05/17 05:23:09;;;;;;;22.73;12.30;;;;;;;37.59;48.52;101021.84;5028023;28;20425;-73
2022/05/17 05:25:36;;;;;;;23.53;12.60;;;;;;;37.75;47.88;101033.19;5011344;28;20421;-72
2022/05/17 05:28:03;;;;;;;16.47;12.07;;;;;;;37.79;47.77;101034.16;5012870;28;20448;-71
2022/05/17 05:30:30;;;;;;;32.30;12.30;;;;;;;38.05;47.19;101037.19;5011434;28;20931;-73
2022/05/17 05:32:57;;;;;;;25.53;14.70;;;;;;;38.03;47.11;101038.59;5011320;28;20530;-72
2022/05/17 05:35:25;;;;;;;19.03;10.97;;;;;;;38.20;46.86;101038.00;5011333;28;20436;-72
2022/05/17 05:37:52;;;;;;;18.90;10.90;;;;;;;37.79;47.23;101028.75;5011105;28;20979;-72
2022/05/17 05:40:20;;;;;;;19.63;13.43;;;;;;;38.02;47.00;101032.38;5011431;28;20895;-72
2022/05/17 05:42:48;;;;;;;18.70;13.07;;;;;;;38.16;46.50;101027.75;5011111;28;20427;-70
2022/05/17 05:45:15;;;;;;;27.50;14.63;;;;;;;38.20;46.21;101022.53;5027671;28;20791;-72
2022/05/17 05:47:42;;;;;;;44.23;12.43;;;;;;;38.09;46.59;101032.78;5011185;28;20425;-71
2022/05/17 05:50:08;;;;;;;19.60;12.77;;;;;;;38.17;46.51;101032.06;5027365;28;20478;-70
2022/05/17 05:52:35;;;;;;;25.13;14.33;;;;;;;38.00;47.30;101031.91;5010964;28;20918;-71
2022/05/17 05:55:01;;;;;;;18.07;14.47;;;;;;;38.24;46.39;101028.94;5027321;28;20448;-70
2022/05/17 05:57:28;;;;;;;20.47;11.07;;;;;;;38.29;46.11;101028.84;5030447;28;20427;-73
2022/05/17 05:59:55;;;;;;;35.53;16.27;;;;;;;38.37;45.97;101028.16;5029996;28;20439;-70
2022/05/17 06:02:21;;;;;;;20.03;13.03;;;;;;;38.16;46.54;101027.75;5030164;28;20443;-71
2022/05/17 06:04:48;;;;;;;19.83;13.17;;;;;;;38.25;45.93;101016.22;5030412;28;20497;-73
2022/05/17 06:07:14;;;;;;;28.73;16.53;;;;;;;38.23;46.56;101021.09;5030075;28;20531;-70
2022/05/17 06:09:40;;;;;;;22.40;14.43;;;;;;;37.97;46.96;101021.66;5031927;28;20487;-68
2022/05/17 06:12:06;;;;;;;27.47;16.27;;;;;;;37.75;47.49;101018.81;5034773;28;20481;-69
2022/05/17 06:14:32;;;;;;;41.13;17.30;;;;;;;37.85;47.10;101026.78;5034401;28;20478;-71
2022/05/17 06:16:58;;;;;;;30.73;19.50;;;;;;;37.62;47.38;101025.84;5034403;28;20489;-71
2022/05/17 06:19:26;;;;;;;37.23;19.20;;;;;;;37.73;47.64;101031.88;5034122;28;20957;-69
2022/05/17 06:21:53;;;;;;;36.97;18.90;;;;;;;37.65;47.62;101031.47;5034646;28;20995;-72
2022/05/17 06:24:19;;;;;;;37.50;17.27;;;;;;;37.45;48.51;101033.75;5034901;28;20475;-70
2022/05/17 06:26:45;;;;;;;25.33;18.90;;;;;;;37.68;47.78;101043.59;5033040;28;20455;-69
2022/05/17 06:29:12;;;;;;;22.67;17.07;;;;;;;37.70;47.48;101048.72;5034556;28;20423;-70
2022/05/17 06:31:38;;;;;;;32.83;18.17;;;;;;;37.84;47.17;101050.34;5034316;28;20938;-72
2022/05/17 06:34:05;;;;;;;30.90;19.27;;;;;;;37.82;47.04;101065.31;5035454;28;20474;-70
2022/05/17 06:36:31;;;;;;;33.47;20.30;;;;;;;38.05;46.40;101061.56;5034303;28;20934;-70
2022/05/17 06:38:57;;;;;;;28.83;16.57;;;;;;;38.21;46.20;101069.38;5033103;28;20473;-71
2022/05/17 06:41:23;;;;;;;24.47;15.73;;;;;;;38.39;45.80;101074.72;5032391;28;20841;-71
2022/05/17 06:43:49;;;;;;;25.77;16.10;;;;;;;38.30;46.16;101079.22;5033177;28;20815;-71
2022/05/17 06:46:15;;;;;;;34.73;17.20;;;;;;;38.39;45.70;101090.16;5031872;28;20956;-71
2022/05/17 06:48:42;;;;;;;30.07;17.50;;;;;;;38.19;46.18;101083.25;5034410;28;20513;-70
2022/05/17 06:51:08;;;;;;;25.00;16.00;;;;;;;38.20;46.29;101089.47;5041286;28;20458;-71
2022/05/17 06:53:35;;;;;;;41.07;18.03;;;;;;;38.38;45.82;101086.66;5041521;28;20502;-70
2022/05/17 06:56:05;;;;;;;44.00;17.63;;;;;;;38.56;45.65;101090.34;5042842;28;20418;-71
2022/05/17 06:58:31;;;;;;;36.57;16.20;;;;;;;38.41;45.86;101094.16;5043231;28;20423;-71
2022/05/17 07:00:57;;;;;;;25.90;14.43;;;;;;;38.44;45.59;101087.34;5042143;28;20422;-71
2022/05/17 07:03:24;;;;;;;29.03;16.67;;;;;;;38.29;46.16;101090.38;5043856;28;20780;-69
2022/05/17 07:05:51;;;;;;;39.80;17.90;;;;;;;38.59;45.43;101099.75;5041628;28;20934;-70
2022/05/17 07:08:17;;;;;;;30.43;17.30;;;;;;;38.72;45.37;101096.22;5038788;28;20469;-70
2022/05/17 07:13:28;;;;;;;42.70;17.93;;;;;;;38.33;46.06;101086.75;5043148;28;20458;-69
2022/05/17 07:15:54;;;;;;;31.77;17.70;;;;;;;38.33;46.40;101088.66;5041239;28;20491;-70
2022/05/17 07:18:24;;;;;;;30.87;17.60;;;;;;;38.49;46.10;101089.13;5044157;28;20422;-71
2022/05/17 07:20:50;;;;;;;26.73;17.07;;;;;;;38.36;46.39;101086.13;5040718;28;20800;-71
2022/05/17 07:23:18;;;;;;;27.83;15.73;;;;;;;38.43;45.89;101094.69;5043059;28;20414;-71
2022/05/17 07:25:45;;;;;;;28.07;16.57;;;;;;;38.47;45.95;101097.56;5041559;28;20980;-71
2022/05/17 07:28:17;;;;;;;39.83;18.50;;;;;;;38.27;46.33;101103.44;5041109;28;20415;-71
2022/05/17 07:30:47;;;;;;;36.77;19.83;;;;;;;38.13;46.50;101109.63;5039385;28;20419;-71
2022/05/17 07:33:13;;;;;;;31.27;18.63;;;;;;;38.14;46.74;101116.66;5040733;28;21566;-71
2022/05/17 07:35:39;;;;;;;23.50;18.17;;;;;;;38.15;46.60;101118.25;5037897;28;20423;-71
2022/05/17 07:38:06;;;;;;;25.20;17.50;;;;;;;38.33;46.45;101118.47;5041083;28;20492;-68
2022/05/17 07:40:33;;;;;;;32.03;18.07;;;;;;;38.34;46.57;101114.66;5042715;28;20991;-70
2022/05/17 07:43:00;;;;;;;35.00;19.03;;;;;;;38.31;46.34;101115.28;5041379;28;20836;-69
2022/05/17 07:45:26;;;;;;;34.33;17.40;;;;;;;38.35;46.35;101114.34;5040895;28;20415;-70
2022/05/17 07:47:53;;;;;;;26.50;16.90;;;;;;;38.55;45.90;101126.69;5042603;28;20506;-68
2022/05/17 07:50:19;;;;;;;29.20;17.90;;;;;;;38.57;45.86;101127.16;5042595;28;20415;-69
2022/05/17 07:52:45;;;;;;;30.80;21.10;;;;;;;38.54;45.95;101130.47;5043986;28;20501;-69
2022/05/17 07:55:12;;;;;;;31.90;17.23;;;;;;;38.48;46.26;101133.59;5042144;28;20813;-69
2022/05/17 07:57:38;;;;;;;22.90;17.83;;;;;;;38.25;46.83;101141.63;5041058;28;20442;-67
2022/05/17 08:00:07;;;;;;;33.20;16.87;;;;;;;38.26;46.83;101150.56;5040701;28;20510;-70
2022/05/17 08:02:33;;;;;;;31.03;16.33;;;;;;;38.28;46.79;101160.03;5043346;28;20838;-69
2022/05/17 08:05:00;;;;;;;33.80;17.27;;;;;;;38.63;46.25;101172.03;5052070;28;20415;-67
2022/05/17 08:07:26;;;;;;;29.10;14.93;;;;;;;38.00;47.55;101180.03;5040227;28;20470;-68
2022/05/17 08:09:52;;;;;;;25.37;14.03;;;;;;;38.41;46.64;101185.50;5043160;28;20968;-70
2022/05/17 08:12:19;;;;;;;21.33;14.20;;;;;;;38.74;46.01;101188.94;5041598;28;20965;-68
2022/05/17 08:14:47;;;;;;;24.63;16.47;;;;;;;39.02;45.32;101205.94;5041007;28;20474;-69
2022/05/17 08:17:13;;;;;;;39.27;20.30;;;;;;;39.19;44.98;101205.31;5039578;28;20412;-70
2022/05/17 08:19:39;;;;;;;46.10;26.03;;;;;;;39.37;44.50;101219.81;5043330;28;20421;-69
2022/05/17 08:22:10;;;;;;;42.43;20.50;;;;;;;39.28;44.61;101219.75;5041866;28;20447;-69
2022/05/17 08:27:31;;;;;;;39.80;19.30;;;;;;;39.37;44.34;101228.78;5030926;28;20531;-69
2022/05/17 08:30:03;;;;;;;33.80;17.93;;;;;;;39.44;44.25;101244.63;5007734;28;20535;-69
2022/05/17 08:35:14;;;;;;;31.83;16.17;;;;;;;39.52;44.25;101248.50;5032190;28;20445;-69
2022/05/17 08:37:41;;;;;;;26.40;15.17;;;;;;;39.51;44.16;101250.44;5031724;28;20408;-69
2022/05/17 08:40:13;;;;;;;25.43;11.43;;;;;;;39.50;44.06;101262.41;5032548;28;20403;-68
2022/05/17 08:43:03;;;;;;;24.50;10.97;;;;;;;39.54;44.04;101265.31;5028881;28;20435;-70
2022/05/17 08:45:40;;;;;;;27.53;14.30;;;;;;;39.58;44.19;101277.16;5026975;28;20928;-69
2022/05/17 08:48:15;;;;;;;21.70;14.43;;;;;;;39.57;43.86;101280.97;5040961;28;20418;-69
2022/05/17 08:50:45;;;;;;;37.87;18.43;;;;;;;39.57;44.35;101281.78;5037018;28;20502;-68
2022/05/17 08:53:18;;;;;;;27.47;13.90;;;;;;;39.57;44.26;101281.78;5008047;28;20462;-69
2022/05/17 08:55:46;;;;;;;27.80;13.20;;;;;;;39.58;44.30;101272.50;5020704;28;20837;-68
2022/05/17 08:58:28;;;;;;;32.60;15.37;;;;;;;39.58;44.07;101255.41;5015186;28;20458;-69
2022/05/17 09:01:24;;;;;;;21.57;13.27;;;;;;;39.64;43.88;101265.09;5030087;28;20432;-71
2022/05/17 09:04:21;;;;;;;20.47;12.27;;;;;;;39.71;43.88;101254.59;5029055;28;20430;-71
2022/05/17 09:07:01;;;;;;;24.80;13.37;;;;;;;39.70;44.08;101267.38;5028977;28;20505;-71
2022/05/17 09:09:45;;;;;;;29.43;13.90;;;;;;;39.70;44.06;101280.16;5032927;28;21065;-71
2022/05/17 09:12:42;;;;;;;27.17;13.90;;;;;;;39.73;43.92;101280.34;5031874;28;20423;-70
2022/05/17 09:15:13;;;;;;;22.20;13.13;;;;;;;39.75;44.21;101288.16;5029511;28;20454;-70
2022/05/17 09:17:39;;;;;;;16.83;11.77;;;;;;;39.76;43.91;101285.13;5030752;28;20792;-71
2022/05/17 09:20:06;;;;;;;17.53;11.43;;;;;;;39.76;43.75;101277.00;5030792;28;20944;-71
2022/05/17 09:22:32;;;;;;;23.83;13.40;;;;;;;39.81;44.19;101275.28;5030805;28;20438;-70
2022/05/17 09:25:11;;;;;;;24.33;12.70;;;;;;;39.74;44.16;101276.50;5030662;28;20428;-69
2022/05/17 09:27:39;;;;;;;29.63;17.40;;;;;;;39.74;44.56;101281.13;5029422;28;20403;-69
2022/05/17 09:30:23;;;;;;;31.63;14.77;;;;;;;39.75;44.83;101291.69;5014193;28;20463;-70
2022/05/17 09:33:10;;;;;;;34.43;15.00;;;;;;;39.73;44.47;101293.13;5029179;28;20419;-71
2022/05/17 09:36:04;;;;;;;25.50;13.47;;;;;;;39.69;44.34;101278.53;5030358;28;20418;-69
2022/05/17 09:38:39;;;;;;;29.17;13.47;;;;;;;39.72;44.80;101269.78;5039816;28;20424;-68
2022/05/17 09:41:08;;;;;;;24.37;14.03;;;;;;;39.81;44.44;101275.28;5050883;28;20445;-70
2022/05/17 09:43:45;;;;;;;31.67;17.37;;;;;;;39.81;45.16;101283.41;5050592;28;20454;-68
2022/05/17 09:46:41;;;;;;;39.60;18.60;;;;;;;39.67;45.31;101318.78;5034881;28;20538;-68
2022/05/17 09:55:22;;;;;;;50.53;16.67;;;;;;;38.36;41.51;101362.56;5030410;28;20989;-68
2022/05/17 09:57:59;;;;;;;45.40;15.17;;;;;;;38.15;42.15;101370.19;5030813;28;20408;-69
2022/05/17 10:00:42;;;;;;;41.17;16.30;;;;;;;37.96;42.36;101371.31;5036732;28;20451;-68
2022/05/17 10:03:20;;;;;;;45.60;16.80;;;;;;;37.97;42.51;101381.84;5040809;28;20411;-69
2022/05/17 10:05:49;;;;;;;42.13;18.37;;;;;;;37.89;42.92;101385.25;5042359;28;20776;-68
2022/05/17 10:08:15;;;;;;;38.07;16.40;;;;;;;37.80;42.83;101376.13;5039430;28;20465;-68
2022/05/17 10:10:47;;;;;;;49.33;18.30;;;;;;;37.74;43.15;101350.22;5033835;28;20481;-68
2022/05/17 10:13:18;;;;;;;31.00;15.10;;;;;;;37.58;43.26;101336.91;5030045;28;21147;-69
2022/05/17 10:15:49;;;;;;;30.07;15.87;;;;;;;37.57;43.22;101323.69;5029974;28;20419;-68
2022/05/17 10:18:34;;;;;;;39.50;16.20;;;;;;;37.55;42.48;101337.50;5030159;28;20418;-69
2022/05/17 10:21:13;;;;;;;36.50;15.10;;;;;;;37.41;42.69;101350.13;5029858;28;20475;-68
2022/05/17 10:23:50;;;;;;;34.50;14.80;;;;;;;37.49;42.21;101346.78;5029844;28;20497;-69
2022/05/17 10:26:25;;;;;;;34.00;13.37;;;;;;;37.62;42.31;101356.88;5030162;28;20945;-71
2022/05/17 10:28:57;;;;;;;30.47;14.17;;;;;;;37.85;42.25;101376.88;5028268;28;20442;-69
2022/05/17 10:31:53;;;;;;;39.23;19.97;;;;;;;37.89;42.20;101396.88;5027573;28;20423;-71
2022/05/17 10:34:53;;;;;;;38.33;16.73;;;;;;;38.01;41.74;101384.78;5029538;28;20458;-69
2022/05/17 10:37:46;;;;;;;30.17;12.37;;;;;;;38.07;41.64;101387.13;5029749;28;20408;-69
2022/05/17 10:40:16;;;;;;;24.90;12.17;;;;;;;38.02;41.62;101381.78;5043918;28;20411;-69
2022/05/17 10:42:44;;;;;;;30.20;13.70;;;;;;;38.00;42.10;101361.50;5027320;28;20511;-69
2022/05/17 10:45:20;;;;;;;40.07;18.27;;;;;;;38.08;41.87;101323.72;5030070;28;20426;-69
2022/05/17 10:48:06;;;;;;;30.03;16.00;;;;;;;38.17;41.62;101307.59;5031384;28;20410;-69
2022/05/17 10:51:00;;;;;;;33.13;17.97;;;;;;;38.30;41.48;101282.44;5030216;28;20466;-69
2022/05/17 10:53:40;;;;;;;30.63;15.33;;;;;;;38.36;40.84;101264.19;5011646;28;20440;-70
2022/05/17 10:56:24;;;;;;;35.90;17.47;;;;;;;38.47;40.97;101249.34;5011157;28;20427;-69
2022/05/17 10:59:13;;;;;;;41.90;18.07;;;;;;;38.70;40.57;101242.94;5015483;28;20400;-69
2022/05/17 11:02:04;;;;;;;40.10;20.50;;;;;;;38.84;40.28;101242.13;5023418;28;20478;-68
2022/05/17 11:04:59;;;;;;;43.13;17.33;;;;;;;38.93;40.43;101251.97;5043784;28;20406;-69
2022/05/17 11:07:57;;;;;;;41.03;17.63;;;;;;;38.96;40.50;101264.13;5041895;28;20418;-70
2022/05/17 11:10:32;;;;;;;33.30;14.63;;;;;;;38.94;40.45;101263.63;5029875;28;20458;-70
2022/05/17 11:13:24;;;;;;;40.97;16.73;;;;;;;38.80;40.80;101266.34;5038482;28;20419;-71
2022/05/17 11:16:05;;;;;;;43.23;19.23;;;;;;;38.75;40.96;101273.78;5033606;28;20416;-68
2022/05/17 11:18:41;;;;;;;36.60;17.87;;;;;;;38.78;41.08;101271.25;5038953;28;20831;-70
2022/05/17 11:21:19;;;;;;;43.67;19.50;;;;;;;38.89;40.80;101269.16;5012397;28;20543;-70
2022/05/17 11:23:51;;;;;;;33.73;17.03;;;;;;;38.92;40.84;101266.66;5013331;28;20954;-70
2022/05/17 11:26:28;;;;;;;31.37;18.37;;;;;;;38.95;40.57;101263.31;5013632;28;20416;-70
2022/05/17 11:29:36;;;;;;;36.90;17.30;;;;;;;38.85;41.15;101260.00;5013431;28;20427;-70
2022/05/17 11:32:28;;;;;;;33.10;15.60;;;;;;;38.75;41.37;101261.03;4999705;28;20475;-68
2022/05/17 11:34:56;;;;;;;40.67;18.90;;;;;;;38.79;41.18;101270.16;5013340;28;20456;-68
2022/05/17 11:37:37;;;;;;;32.43;19.10;;;;;;;38.63;41.51;101261.50;5013460;28;20484;-68
2022/05/17 11:40:09;;;;;;;38.37;18.07;;;;;;;38.61;41.84;101268.31;5013164;28;20455;-71
2022/05/17 11:43:40;;;;;;;38.43;18.63;;;;;;;38.68;41.95;101266.03;5013398;28;20420;-71